Beachview, Louisiana
Current Conditions -  °F | °C
As of 3:53 AM on Thursday 23 Oct 2014 (Local Time) from KMSY Reporting Station
Clear Clear  
Wind Chill: 64°   Ceiling: Unl
Heat Index: 64°   Visibility: 10mi
Dew Point: 49°   Wind: 12mph
Humidity: 58%   Direction: 70°ENE
Pressure: 30.05"   Gusts: NA
Location:  29.991°N, 90.2553°W
Report Text: KMSY 230853Z 07010KT 10SM CLR 18/09 A3005 RMK AO2 SLP180 T01780094 56004
Loading
Personal Weather Stations






























Interactive Weather Map
Tropical Storm Tracking
New forecast layout! Learn more

10-Day Weather Forecast

Advertisements
Track Severe Weather on mobile